Friday, January 19, 2018, 10:35 PM EST
Back to Local

KBML, Berlin Municipal Airport

Location: Milan, NH, United States Lat: 44.583
Local Time: 10:35 PM EST ( 3:35 GMT) Lon: -71.183
Time Zone: US/Eastern Elev: 1158 ft

Show me the last for .
Show Coded

Time T Td Feel RH Dir Speed Gust Alt SLP Vis Weather Sky Remarks
2018-01-19 21:52 25 22 21 87 350° 3 - 29.76 29.81 7 OVC026 None
2018-01-19 20:52 24 21 - 87 - Calm - 29.77 29.83 8 OVC024 None
2018-01-19 19:52 25 22 18 87 360° 6 - 29.79 29.85 8 OVC025 None
2018-01-19 18:52 24 22 20 91 120° 3 - 29.80 29.86 8 OVC025 6-hr Min Temp (7pm): 24.1°F
6-hr Max Temp (7pm): 27.0°F
2018-01-19 17:52 25 21 21 84 290° 3 - 29.80 29.85 8 OVC027 None
2018-01-19 16:52 26 22 - 84 - Calm - 29.81 29.86 10 BKN022 OVC030 None
2018-01-19 15:52 26 21 - 80 - Calm - 29.83 29.88 9 OVC020 None
2018-01-19 14:52 26 21 - 80 - Calm - 29.81 29.87 9 OVC020 None
2018-01-19 13:52 26 20 21 77 360° 5 - 29.83 29.88 9 OVC018 None
2018-01-19 12:52 26 20 - 77 - Calm - 29.82 29.88 10 OVC022 6-hr Min Temp (1pm): 19.0°F
6-hr Max Temp (1pm): 27.0°F
2018-01-19 11:52 26 20 - 77 - Calm - 29.84 29.89 9 OVC024 None
2018-01-19 10:52 24 20 - 83 - Calm - 29.86 29.91 7 OVC026 None
2018-01-19 10:19 23 20 - 87 - Calm - 29.86 - 5 BR FEW022 OVC029 None
2018-01-19 10:10 23 20 - 87 - Calm - 29.86 - 6 BR SCT021 OVC030 None
2018-01-19 09:52 22 19 - 88 - Calm - 29.87 29.92 6 BR OVC020 None
2018-01-19 08:52 21 18 - 87 - Calm - 29.87 29.93 6 BR OVC018 None
2018-01-19 07:52 20 18 - 91 - Calm - 29.85 29.91 7 OVC019 None
2018-01-19 06:52 19 17 - 91 - Calm - 29.85 29.91 8 OVC026 1-hr Precip Total: Trace
6-hr Precip Total (7am): 0.00"
6-hr Min Temp (7am): 18.0°F
6-hr Max Temp (7am): 21.0°F
2018-01-19 06:18 19 17 - 91 - Calm - 29.84 - 9 BKN029 OVC100 1-hr Precip Total: Trace
2018-01-19 05:52 20 17 - 88 - Calm - 29.84 29.90 6 -SN BR FEW029 OVC100 1-hr Precip Total: Trace
2018-01-19 05:28 20 18 - 91 - Calm - 29.83 - 3 -SN BR OVC030 1-hr Precip Total: Trace
2018-01-19 05:22 21 19 - 91 - Calm - 29.83 - 2 -SN BR OVC028 1-hr Precip Total: Trace
2018-01-19 05:14 21 18 - 87 - Calm - 29.83 - 1 -SN BR OVC022 1-hr Precip Total: Trace
2018-01-19 04:52 20 18 - 91 - Calm - 29.83 29.88 1 -SN BR VV016 1-hr Precip Total: Trace
2018-01-19 04:38 20 18 - 91 - Calm - 29.83 - 1 -SN BR BKN019 OVC027 1-hr Precip Total: Trace
2018-01-19 04:29 20 18 - 91 - Calm - 29.83 - 1 -SN BR BKN019 OVC028 1-hr Precip Total: Trace
2018-01-19 03:52 20 17 - 88 - Calm - 29.83 29.88 9 OVC021 None
2018-01-19 03:39 20 17 - 88 - Calm - 29.83 - 9 BKN023 OVC032 None
2018-01-19 03:18 20 17 - 88 - Calm - 29.83 - 9 FEW024 OVC031 None
2018-01-19 02:52 19 17 - 91 - Calm - 29.83 29.89 9 BKN024 OVC037 None
2018-01-19 01:52 19 16 14 87 180° 3 - 29.84 29.90 7 OVC035 None
2018-01-19 00:52 20 17 - 88 - Calm - 29.84 29.90 9 BKN030 6-hr Min Temp (1am): 19.0°F
6-hr Max Temp (1am): 24.1°F
2018-01-18 23:52 21 18 - 87 - Calm - 29.85 29.90 10 OVC031 24-hr Min Temp (12am): -0.0°F
24-hr Max Temp (12am): 24.1°F
2018-01-18 23:50 21 18 - 85 - Calm - 29.85 - 10 FEW023 OVC031 None
2018-01-18 22:52 23 17 - 77 - Calm - 29.86 29.91 10 OVC024 None

Support USWX by starting your Amazon purchase here.